createdAt,value
2017-12-16T12:30:03.294Z,2.4
2017-12-16T12:45:03.047Z,2
2017-12-16T13:00:03.116Z,2
2017-12-16T13:15:02.365Z,2.1
2017-12-16T13:30:02.794Z,1.9
2017-12-16T13:45:03.014Z,1.8
2017-12-16T14:00:02.359Z,1.9
2017-12-16T14:15:09.488Z,1.8
2017-12-16T14:30:03.425Z,1.9
2017-12-16T14:45:02.672Z,1.9
2017-12-16T15:00:19.236Z,1.9
2017-12-16T15:15:05.979Z,1.9
2017-12-16T15:30:02.614Z,1.9
2017-12-16T15:45:12.851Z,1.9
2017-12-16T16:00:22.052Z,1.6
2017-12-16T16:15:02.316Z,1.4
2017-12-16T16:33:51.725Z,1
2017-12-16T16:45:02.974Z,1.1
2017-12-16T17:00:02.327Z,1.1
2017-12-16T17:15:57.387Z,1.1
2017-12-16T17:30:03.102Z,1.2
2017-12-16T17:45:02.874Z,1.2
2017-12-16T18:00:18.858Z,1.2
2017-12-16T18:15:03.181Z,1.2
2017-12-16T18:30:02.738Z,1.2
2017-12-16T18:45:03.147Z,1.2
2017-12-16T19:00:27.144Z,1.1
2017-12-16T19:15:47.813Z,1
2017-12-16T19:30:28.373Z,0.9
2017-12-16T19:45:05.413Z,0.8
2017-12-16T20:00:34.319Z,0.9
2017-12-16T20:15:02.882Z,0.9
2017-12-16T20:30:05.569Z,0.8
2017-12-16T20:45:03.129Z,0.9
2017-12-16T21:00:02.782Z,0.8
2017-12-16T21:15:02.277Z,0.9
2017-12-16T21:30:03.167Z,0.8
2017-12-16T21:45:16.031Z,0.8
2017-12-16T22:00:02.787Z,0.7
2017-12-16T22:15:16.927Z,0.7
2017-12-16T22:30:02.353Z,0.8
2017-12-16T22:45:03.327Z,0.8
2017-12-16T23:00:05.710Z,0.9
2017-12-16T23:15:03.025Z,0.9
2017-12-16T23:30:24.297Z,0.9
2017-12-16T23:45:13.559Z,0.9
